createdAt,value
2022-11-19T00:01:32.773Z,75.75
2022-11-19T00:04:02.988Z,75.81
2022-11-19T00:06:34.516Z,76.02
2022-11-19T00:09:06.404Z,76.42
2022-11-19T00:11:56.253Z,76.35
2022-11-19T00:14:26.734Z,76.44
2022-11-19T00:16:57.134Z,77.04
2022-11-19T00:19:27.514Z,78.04
2022-11-19T00:21:57.857Z,78.34
2022-11-19T00:24:31.342Z,78.68
2022-11-19T00:27:01.793Z,78.73
2022-11-19T00:29:32.518Z,79.06
2022-11-19T00:32:02.792Z,79.22
2022-11-19T00:34:33.153Z,79.12
2022-11-19T00:37:03.640Z,79.13
2022-11-19T00:39:34.407Z,79.07
2022-11-19T00:42:05.038Z,78.89
2022-11-19T00:44:37.457Z,79.05
2022-11-19T00:47:08.451Z,79.02
2022-11-19T00:49:38.960Z,79.54
2022-11-19T00:52:09.396Z,79.22
2022-11-19T00:54:39.900Z,79.10
2022-11-19T00:57:10.066Z,79.11
2022-11-19T00:59:40.194Z,79.89
2022-11-19T01:02:10.368Z,80.28
2022-11-19T01:04:40.752Z,80.43
2022-11-19T01:07:11.156Z,80.32
2022-11-19T01:09:41.519Z,80.30
2022-11-19T01:12:11.866Z,80.48
2022-11-19T01:14:42.129Z,80.40
2022-11-19T01:17:12.584Z,79.93
2022-11-19T01:19:43.016Z,79.03
2022-11-19T01:22:13.078Z,79.50
2022-11-19T01:24:43.373Z,79.82
2022-11-19T01:27:13.713Z,80.01
2022-11-19T01:29:44.048Z,80.36
2022-11-19T01:32:15.491Z,79.96
2022-11-19T01:34:46.043Z,79.78
2022-11-19T01:37:16.487Z,80.13
2022-11-19T01:39:46.816Z,80.37
2022-11-19T01:42:52.701Z,80.37
2022-11-19T01:45:29.566Z,80.41
2022-11-19T01:48:09.004Z,80.37
2022-11-19T01:50:48.162Z,80.06
2022-11-19T01:53:22.607Z,79.97
2022-11-19T01:55:53.635Z,80.40
2022-11-19T01:58:26.854Z,79.93
2022-11-19T02:00:57.290Z,80.04
2022-11-19T02:03:30.911Z,80.15
2022-11-19T02:06:04.511Z,80.33
2022-11-19T02:08:42.241Z,80.27
2022-11-19T02:11:18.512Z,80.32
2022-11-19T02:14:10.381Z,79.78
2022-11-19T02:17:02.306Z,79.83
2022-11-19T02:20:10.297Z,79.99
2022-11-19T02:22:59.077Z,79.36
2022-11-19T02:25:41.555Z,79.64
2022-11-19T02:28:34.519Z,79.16
2022-11-19T02:31:24.178Z,79.29
2022-11-19T02:34:03.257Z,78.80
2022-11-19T02:37:23.161Z,78.79
2022-11-19T02:40:05.281Z,78.64
2022-11-19T02:42:46.971Z,78.30
2022-11-19T02:45:47.151Z,78.80
2022-11-19T02:48:25.463Z,78.39
2022-11-19T02:51:00.108Z,77.59
2022-11-19T02:53:30.916Z,77.70
2022-11-19T02:56:13.811Z,77.02
2022-11-19T02:59:13.664Z,76.78
2022-11-19T03:02:06.761Z,76.49
2022-11-19T03:04:37.423Z,75.99
2022-11-19T03:07:12.945Z,76.20
2022-11-19T03:09:48.703Z,75.69
2022-11-19T03:12:32.850Z,75.80
2022-11-19T03:15:30.761Z,75.29
2022-11-19T03:18:04.265Z,74.67
2022-11-19T03:20:47.520Z,75.14
2022-11-19T03:23:45.526Z,75.20
2022-11-19T03:26:32.379Z,74.87
2022-11-19T03:29:08.767Z,75.45
2022-11-19T03:31:42.427Z,75.17
2022-11-19T03:34:20.575Z,75.20
2022-11-19T03:36:53.675Z,74.75
2022-11-19T03:39:25.112Z,74.75
2022-11-19T03:41:55.725Z,74.83
2022-11-19T03:44:55.783Z,75.25
2022-11-19T03:47:32.707Z,74.40
2022-11-19T03:50:14.451Z,73.58
2022-11-19T03:52:45.973Z,73.53
2022-11-19T03:55:16.715Z,74.54
2022-11-19T03:57:47.788Z,73.88
2022-11-19T04:02:09.443Z,74.19
2022-11-19T04:04:41.144Z,73.51
2022-11-19T04:07:17.245Z,73.22
2022-11-19T04:09:47.692Z,74.17
2022-11-19T04:12:21.256Z,73.83
2022-11-19T04:14:52.023Z,73.52
2022-11-19T04:17:22.929Z,73.67
2022-11-19T04:19:53.185Z,73.44
2022-11-19T04:22:23.472Z,73.47
2022-11-19T04:24:53.684Z,74.07
2022-11-19T04:27:24.034Z,73.66
2022-11-19T04:29:54.538Z,72.93
2022-11-19T04:32:25.919Z,73.58
2022-11-19T04:34:56.260Z,73.22
2022-11-19T04:37:26.694Z,73.10
2022-11-19T04:39:57.048Z,72.56
2022-11-19T04:42:27.517Z,72.37
2022-11-19T04:44:57.845Z,71.90
2022-11-19T04:47:28.027Z,71.97
2022-11-19T04:49:58.269Z,71.72
2022-11-19T04:52:28.562Z,72.17
2022-11-19T04:54:58.836Z,72.98
2022-11-19T04:57:29.110Z,72.41
2022-11-19T04:59:59.341Z,72.70
2022-11-19T05:02:29.667Z,73.01
2022-11-19T05:04:59.960Z,72.56
2022-11-19T05:07:30.456Z,72.98
2022-11-19T05:10:00.592Z,72.65
2022-11-19T05:12:30.679Z,73.29
2022-11-19T05:15:01.989Z,73.08
2022-11-19T05:17:32.863Z,72.82
2022-11-19T05:20:03.286Z,72.30
2022-11-19T05:22:33.630Z,72.86
2022-11-19T05:25:03.927Z,72.67
2022-11-19T05:27:34.053Z,72.87
2022-11-19T05:30:04.600Z,72.41
2022-11-19T05:32:34.869Z,72.53
2022-11-19T05:35:08.307Z,72.51
2022-11-19T05:37:38.765Z,72.49
2022-11-19T05:40:09.886Z,72.86
2022-11-19T05:42:40.236Z,72.56
2022-11-19T05:45:11.499Z,73.03
2022-11-19T05:47:47.294Z,72.97
2022-11-19T05:50:18.951Z,73.05
2022-11-19T05:52:53.042Z,73.13
2022-11-19T05:55:23.709Z,73.32
2022-11-19T05:57:54.107Z,73.42
2022-11-19T06:00:24.560Z,72.82
2022-11-19T06:02:54.931Z,72.40
2022-11-19T06:05:25.285Z,71.93
2022-11-19T06:07:55.572Z,71.98
2022-11-19T06:10:25.862Z,72.09
2022-11-19T06:12:56.228Z,72.66
2022-11-19T06:15:27.218Z,72.28
2022-11-19T06:17:58.360Z,72.19
2022-11-19T06:20:28.814Z,72.63
2022-11-19T06:23:00.198Z,72.14
2022-11-19T06:25:30.111Z,71.95
2022-11-19T06:28:00.167Z,72.37
2022-11-19T06:30:30.514Z,72.22
2022-11-19T06:33:00.861Z,72.38
2022-11-19T06:35:31.092Z,72.40
2022-11-19T06:38:01.572Z,72.53
2022-11-19T06:40:31.998Z,71.90
2022-11-19T06:43:02.191Z,72.04
2022-11-19T06:45:32.590Z,71.57
2022-11-19T06:48:03.054Z,72.07
2022-11-19T06:50:34.065Z,71.53
2022-11-19T06:53:04.350Z,70.99
2022-11-19T06:55:34.872Z,70.84
2022-11-19T06:58:09.730Z,71.27
2022-11-19T07:00:40.274Z,71.58
2022-11-19T07:03:10.757Z,71.40
2022-11-19T07:05:41.168Z,71.09
2022-11-19T07:08:11.575Z,70.47
2022-11-19T07:10:42.609Z,70.74
2022-11-19T07:13:13.159Z,70.61
2022-11-19T07:15:43.730Z,70.60
2022-11-19T07:18:14.374Z,70.33
2022-11-19T07:20:47.324Z,70.20
2022-11-19T07:23:17.632Z,69.96
2022-11-19T07:25:47.976Z,70.25
2022-11-19T07:28:18.248Z,70.03
2022-11-19T07:30:48.670Z,68.88
2022-11-19T07:33:18.974Z,68.61
2022-11-19T07:35:49.306Z,69.22
2022-11-19T07:38:19.636Z,68.86
2022-11-19T07:40:59.967Z,70.18
2022-11-19T07:43:31.486Z,69.76
2022-11-19T07:46:01.852Z,68.94
2022-11-19T07:48:33.073Z,69.62
2022-11-19T07:51:03.507Z,69.33
2022-11-19T07:53:33.951Z,69.43
2022-11-19T07:56:05.245Z,69.05
2022-11-19T07:58:35.495Z,68.79
2022-11-19T08:01:14.307Z,68.65
2022-11-19T08:03:45.110Z,69.17
2022-11-19T08:06:21.280Z,69.73
2022-11-19T08:08:51.705Z,69.20
2022-11-19T08:11:22.399Z,69.12
2022-11-19T08:13:52.922Z,69.27
2022-11-19T08:16:42.043Z,70.00
2022-11-19T08:19:15.094Z,69.94
2022-11-19T08:21:49.700Z,70.11
2022-11-19T08:24:23.309Z,70.14
2022-11-19T08:26:54.500Z,69.86
2022-11-19T08:29:25.999Z,70.12
2022-11-19T08:31:56.361Z,69.79
2022-11-19T08:34:27.246Z,69.57
2022-11-19T08:36:57.626Z,69.00
2022-11-19T08:39:29.130Z,69.29
2022-11-19T08:42:17.835Z,69.85
2022-11-19T08:44:48.146Z,70.37
2022-11-19T08:47:18.556Z,71.25
2022-11-19T08:49:49.079Z,71.77
2022-11-19T08:52:19.548Z,72.16
2022-11-19T08:54:50.082Z,73.23
2022-11-19T08:57:21.525Z,73.76
2022-11-19T08:59:51.744Z,74.06
2022-11-19T09:02:21.929Z,74.72
2022-11-19T09:04:52.109Z,75.00
2022-11-19T09:07:22.551Z,74.77
2022-11-19T09:09:53.009Z,75.37
2022-11-19T09:12:23.428Z,75.55
2022-11-19T09:14:53.807Z,75.74
2022-11-19T09:17:24.070Z,76.11
2022-11-19T09:19:54.392Z,76.33
2022-11-19T09:22:24.965Z,75.75
2022-11-19T09:24:55.397Z,75.35
2022-11-19T09:27:25.687Z,75.21
2022-11-19T09:29:56.134Z,74.99
2022-11-19T09:32:26.661Z,75.09
2022-11-19T09:34:56.946Z,74.87
2022-11-19T09:37:27.319Z,74.75
2022-11-19T09:39:57.607Z,74.70
2022-11-19T09:42:50.001Z,73.89
2022-11-19T09:45:37.979Z,74.23
2022-11-19T09:48:36.031Z,74.55
2022-11-19T09:51:32.229Z,74.14
2022-11-19T09:54:10.708Z,73.82
2022-11-19T09:56:52.705Z,74.15
2022-11-19T09:59:38.508Z,73.94
2022-11-19T10:02:24.094Z,74.37
2022-11-19T10:04:55.200Z,74.42
2022-11-19T10:07:57.926Z,74.14
2022-11-19T10:10:45.054Z,75.02
2022-11-19T10:13:34.977Z,75.08
2022-11-19T10:16:05.484Z,74.97
2022-11-19T10:18:42.350Z,74.20
2022-11-19T10:21:34.321Z,74.60
2022-11-19T10:24:21.288Z,74.24
2022-11-19T10:27:07.236Z,74.87
2022-11-19T10:29:42.670Z,74.27
2022-11-19T10:32:26.309Z,73.14
2022-11-19T10:35:00.882Z,72.85
2022-11-19T10:37:39.958Z,72.60
2022-11-19T10:40:23.758Z,72.70
2022-11-19T10:43:23.460Z,72.95
2022-11-19T10:45:54.763Z,72.99
2022-11-19T10:48:27.617Z,72.81
2022-11-19T10:51:01.321Z,71.77
2022-11-19T10:53:39.252Z,71.02
2022-11-19T10:56:17.086Z,70.80
2022-11-19T10:58:58.767Z,70.46
2022-11-19T11:01:37.302Z,69.92
2022-11-19T11:04:10.330Z,69.56
2022-11-19T11:07:01.056Z,69.47
2022-11-19T11:09:39.644Z,69.99
2022-11-19T11:12:46.751Z,70.32
2022-11-19T11:15:24.449Z,70.22
2022-11-19T11:18:11.596Z,70.58
2022-11-19T11:20:47.896Z,71.13
2022-11-19T11:23:19.975Z,72.25
2022-11-19T11:26:11.236Z,72.42
2022-11-19T11:28:57.290Z,72.34
2022-11-19T11:31:49.453Z,72.63
2022-11-19T11:34:28.676Z,72.67
2022-11-19T11:37:00.176Z,72.67
2022-11-19T11:39:42.169Z,72.53
2022-11-19T11:42:17.854Z,72.54
2022-11-19T11:45:01.236Z,71.92
2022-11-19T11:47:37.466Z,72.42
2022-11-19T11:50:20.910Z,72.22
2022-11-19T11:52:56.628Z,72.34
2022-11-19T11:55:26.893Z,72.36
2022-11-19T11:58:00.147Z,72.67
2022-11-19T12:00:43.462Z,73.37
2022-11-19T12:03:22.916Z,73.46
2022-11-19T12:06:13.806Z,73.20
2022-11-19T12:08:47.378Z,73.71
2022-11-19T12:11:56.929Z,73.73
2022-11-19T12:14:30.067Z,73.71
2022-11-19T12:17:28.725Z,73.80
2022-11-19T12:20:23.591Z,73.71
2022-11-19T12:23:25.040Z,73.89
2022-11-19T12:26:01.011Z,73.95
2022-11-19T12:28:52.620Z,73.96
2022-11-19T12:31:49.980Z,74.01
2022-11-19T12:34:57.416Z,73.69
2022-11-19T12:37:35.307Z,73.81
2022-11-19T12:40:24.135Z,73.86
2022-11-19T12:43:33.494Z,73.74
2022-11-19T12:46:25.454Z,73.40
2022-11-19T12:49:24.956Z,73.80
2022-11-19T12:52:26.931Z,73.99
2022-11-19T12:55:20.142Z,73.90
2022-11-19T12:57:59.440Z,73.74
2022-11-19T13:00:36.871Z,74.10
2022-11-19T13:03:33.808Z,74.34
2022-11-19T13:06:15.360Z,74.52
2022-11-19T13:09:19.682Z,74.37
2022-11-19T13:12:05.451Z,74.46
2022-11-19T13:15:53.853Z,74.14
2022-11-19T13:18:25.138Z,73.54
2022-11-19T13:20:58.404Z,73.09
2022-11-19T13:23:36.063Z,73.38
2022-11-19T13:26:13.540Z,72.81
2022-11-19T13:29:02.535Z,72.95
2022-11-19T13:31:48.963Z,72.52
2022-11-19T13:34:21.751Z,72.82
2022-11-19T13:37:02.039Z,72.63
2022-11-19T13:39:41.841Z,72.86
2022-11-19T13:42:31.962Z,73.34
2022-11-19T13:45:02.805Z,73.20
2022-11-19T13:47:48.106Z,73.63
2022-11-19T13:50:32.530Z,73.50
2022-11-19T13:53:15.223Z,73.23
2022-11-19T13:55:47.346Z,73.20
2022-11-19T13:58:17.774Z,73.22
2022-11-19T14:01:11.056Z,72.88
2022-11-19T14:04:05.520Z,72.85
2022-11-19T14:07:11.932Z,73.04
2022-11-19T14:10:00.821Z,72.85
2022-11-19T14:12:38.472Z,72.55
2022-11-19T14:15:48.253Z,73.22
2022-11-19T14:18:54.915Z,72.77
2022-11-19T14:21:46.446Z,73.31
2022-11-19T14:24:49.463Z,73.40
2022-11-19T14:27:19.901Z,73.59
2022-11-19T14:29:50.076Z,74.11
2022-11-19T14:32:21.687Z,74.60
2022-11-19T14:35:03.759Z,74.60
2022-11-19T14:37:39.758Z,75.36
2022-11-19T14:40:26.417Z,74.41
2022-11-19T14:43:20.903Z,74.68
2022-11-19T14:46:06.290Z,74.52
2022-11-19T14:48:42.619Z,74.28
2022-11-19T14:51:29.425Z,74.29
2022-11-19T14:54:18.075Z,74.46
2022-11-19T14:57:01.666Z,74.07
2022-11-19T14:59:37.328Z,74.79
2022-11-19T15:02:26.097Z,75.26
2022-11-19T15:05:23.339Z,75.13
2022-11-19T15:08:14.793Z,75.29
2022-11-19T15:11:06.703Z,75.15
2022-11-19T15:13:42.801Z,75.07
2022-11-19T15:16:19.593Z,75.10
2022-11-19T15:18:49.962Z,75.35
2022-11-19T15:21:55.597Z,75.36
2022-11-19T15:24:29.148Z,75.44
2022-11-19T15:27:24.521Z,75.50
2022-11-19T15:30:09.508Z,75.58
2022-11-19T15:32:55.255Z,75.18
2022-11-19T15:35:43.725Z,75.42
2022-11-19T15:38:20.265Z,75.36
2022-11-19T15:40:53.913Z,75.35
2022-11-19T15:43:29.655Z,75.46
2022-11-19T15:46:22.925Z,75.31
2022-11-19T15:49:23.060Z,75.57
2022-11-19T15:52:00.137Z,75.42
2022-11-19T15:54:35.283Z,75.35
2022-11-19T15:57:25.586Z,75.24
2022-11-19T16:00:03.797Z,75.04
2022-11-19T16:02:42.979Z,75.03
2022-11-19T16:05:26.562Z,75.31
2022-11-19T16:07:58.956Z,75.08
2022-11-19T16:10:35.888Z,74.72
2022-11-19T16:13:45.189Z,74.79
2022-11-19T16:16:47.357Z,74.76
2022-11-19T16:19:19.509Z,74.87
2022-11-19T16:22:00.899Z,74.60
2022-11-19T16:24:51.380Z,74.39
2022-11-19T16:27:26.655Z,74.51
2022-11-19T16:29:57.280Z,74.20
2022-11-19T16:32:30.104Z,74.39
2022-11-19T16:35:14.638Z,74.31
2022-11-19T16:37:45.079Z,73.95
2022-11-19T16:40:18.188Z,74.16
2022-11-19T16:43:02.750Z,74.15
2022-11-19T16:45:35.114Z,73.92
2022-11-19T16:48:05.574Z,73.67
2022-11-19T16:50:46.520Z,73.99
2022-11-19T16:53:49.318Z,74.18
2022-11-19T16:56:19.715Z,74.02
2022-11-19T16:58:50.154Z,74.36
2022-11-19T17:01:23.440Z,74.09
2022-11-19T17:04:05.475Z,73.92
2022-11-19T17:06:39.334Z,74.05
2022-11-19T17:09:09.711Z,74.29
2022-11-19T17:12:02.522Z,73.98
2022-11-19T17:14:38.503Z,73.93
2022-11-19T17:17:41.384Z,73.99
2022-11-19T17:20:32.610Z,74.21
2022-11-19T17:23:04.556Z,73.79
2022-11-19T17:25:35.978Z,73.23
2022-11-19T17:28:07.017Z,73.77
2022-11-19T17:30:37.286Z,73.85
2022-11-19T17:33:08.056Z,73.64
2022-11-19T17:35:44.726Z,74.16
2022-11-19T17:38:32.811Z,74.23
2022-11-19T17:41:05.313Z,74.28
2022-11-19T17:43:55.184Z,74.12
2022-11-19T17:46:27.284Z,73.91
2022-11-19T17:48:57.796Z,74.04
2022-11-19T17:51:29.245Z,73.98
2022-11-19T17:54:00.056Z,73.92
2022-11-19T17:56:31.894Z,73.81
2022-11-19T17:59:02.504Z,73.97
2022-11-19T18:01:32.815Z,74.02
2022-11-19T18:04:02.989Z,74.44
2022-11-19T18:06:33.022Z,74.09
2022-11-19T18:09:03.092Z,74.12
2022-11-19T18:11:33.776Z,74.04
2022-11-19T18:14:05.485Z,74.02
2022-11-19T18:16:40.486Z,74.07
2022-11-19T18:19:16.862Z,73.81
2022-11-19T18:21:48.330Z,74.06
2022-11-19T18:24:19.100Z,74.25
2022-11-19T18:26:49.892Z,74.15
2022-11-19T18:29:20.544Z,74.09
2022-11-19T18:31:55.999Z,74.02
2022-11-19T18:34:27.540Z,74.12
2022-11-19T18:36:57.715Z,73.76
2022-11-19T18:39:28.068Z,73.98
2022-11-19T18:41:58.577Z,73.96
2022-11-19T18:44:37.647Z,74.01
2022-11-19T18:47:10.607Z,73.95
2022-11-19T18:49:41.319Z,73.60
2022-11-19T18:52:17.096Z,73.74
2022-11-19T18:54:47.843Z,73.58
2022-11-19T18:57:18.621Z,73.30
2022-11-19T18:59:48.882Z,73.31
2022-11-19T19:02:19.291Z,73.17
2022-11-19T19:04:51.000Z,72.55
2022-11-19T19:07:21.775Z,72.61
2022-11-19T19:09:52.082Z,72.54
2022-11-19T19:12:23.668Z,72.31
2022-11-19T19:14:57.034Z,72.32
2022-11-19T19:17:28.517Z,71.88
2022-11-19T19:19:58.522Z,71.95
2022-11-19T19:22:28.648Z,71.95
2022-11-19T19:24:59.011Z,72.17
2022-11-19T19:27:29.327Z,72.38
2022-11-19T19:29:59.847Z,72.25
2022-11-19T19:32:30.895Z,72.10
2022-11-19T19:35:01.116Z,72.47
2022-11-19T19:37:31.725Z,72.18
2022-11-19T19:40:01.957Z,72.35
2022-11-19T19:42:32.212Z,72.40
2022-11-19T19:45:02.468Z,72.28
2022-11-19T19:47:33.397Z,72.44
2022-11-19T19:50:03.592Z,72.17
2022-11-19T19:52:33.779Z,72.04
2022-11-19T19:55:03.819Z,71.95
2022-11-19T19:57:33.835Z,72.12
2022-11-19T20:00:03.939Z,72.08
2022-11-19T20:02:41.981Z,72.23
2022-11-19T20:05:12.453Z,71.83
2022-11-19T20:07:42.802Z,72.01
2022-11-19T20:10:13.013Z,71.51
2022-11-19T20:13:01.364Z,71.74
2022-11-19T20:15:31.684Z,71.85
2022-11-19T20:18:02.136Z,71.62
2022-11-19T20:20:32.427Z,71.72
2022-11-19T20:23:02.663Z,71.36
2022-11-19T20:25:32.987Z,71.56
2022-11-19T20:28:03.388Z,71.58
2022-11-19T20:30:33.600Z,71.34
2022-11-19T20:33:03.944Z,71.44
2022-11-19T20:35:34.173Z,71.43
2022-11-19T20:38:04.506Z,71.45
2022-11-19T20:40:34.786Z,71.64
2022-11-19T20:43:23.990Z,71.55
2022-11-19T20:45:54.256Z,71.60
2022-11-19T20:48:24.530Z,71.55
2022-11-19T20:50:59.839Z,71.59
2022-11-19T20:53:30.094Z,71.77
2022-11-19T20:56:05.609Z,71.60
2022-11-19T20:58:36.370Z,71.63
2022-11-19T21:01:09.578Z,71.72
2022-11-19T21:03:40.344Z,71.82
2022-11-19T21:06:11.086Z,71.73
2022-11-19T21:08:41.321Z,71.85
2022-11-19T21:11:14.748Z,71.66
2022-11-19T21:13:46.466Z,71.70
2022-11-19T21:16:19.610Z,71.83
2022-11-19T21:18:51.046Z,71.76
2022-11-19T21:21:23.484Z,71.54
2022-11-19T21:23:55.800Z,71.82
2022-11-19T21:26:28.236Z,72.19
2022-11-19T21:29:00.556Z,72.27
2022-11-19T21:31:50.519Z,72.16
2022-11-19T21:34:24.805Z,72.46
2022-11-19T21:36:58.160Z,72.19
2022-11-19T21:39:28.739Z,72.70
2022-11-19T21:41:59.117Z,72.52
2022-11-19T21:44:30.347Z,71.80
2022-11-19T21:47:00.232Z,71.42
2022-11-19T21:49:30.355Z,71.22
2022-11-19T21:54:38.342Z,71.65
2022-11-19T21:57:08.565Z,71.45
2022-11-19T21:59:38.847Z,71.39
2022-11-19T22:02:09.163Z,71.18
2022-11-19T22:04:39.652Z,71.51
2022-11-19T22:07:09.910Z,71.90
2022-11-19T22:09:40.247Z,71.62
2022-11-19T22:12:10.430Z,71.77
2022-11-19T22:14:40.675Z,71.60
2022-11-19T22:17:10.952Z,71.67
2022-11-19T22:19:41.201Z,71.60
2022-11-19T22:22:11.404Z,71.48
2022-11-19T22:24:41.642Z,71.47
2022-11-19T22:27:11.928Z,71.58
2022-11-19T22:29:42.341Z,71.22
2022-11-19T22:32:12.705Z,71.37
2022-11-19T22:34:43.061Z,71.36
2022-11-19T22:37:13.360Z,71.39
2022-11-19T22:39:43.598Z,71.30
2022-11-19T22:42:14.127Z,71.24
2022-11-19T22:44:44.718Z,70.96
2022-11-19T22:47:16.714Z,71.37
2022-11-19T22:49:46.935Z,71.23
2022-11-19T22:52:18.241Z,71.11
2022-11-19T22:54:48.541Z,71.37
2022-11-19T22:57:18.799Z,71.25
2022-11-19T22:59:48.877Z,71.15
2022-11-19T23:02:18.892Z,71.04
2022-11-19T23:04:48.996Z,71.50
2022-11-19T23:07:19.068Z,71.35
2022-11-19T23:09:49.193Z,71.31
2022-11-19T23:12:37.644Z,71.63
2022-11-19T23:15:08.233Z,71.48
2022-11-19T23:17:45.533Z,71.46
2022-11-19T23:20:15.853Z,71.70
2022-11-19T23:22:46.034Z,71.62
2022-11-19T23:25:16.183Z,71.35
2022-11-19T23:27:46.414Z,71.26
2022-11-19T23:30:16.629Z,71.80
2022-11-19T23:32:46.947Z,71.33
2022-11-19T23:35:17.321Z,71.40
2022-11-19T23:37:47.643Z,71.49
2022-11-19T23:40:17.973Z,71.37
2022-11-19T23:42:51.844Z,71.55
2022-11-19T23:45:22.466Z,71.50
2022-11-19T23:47:53.164Z,71.56
2022-11-19T23:50:23.408Z,71.71
2022-11-19T23:52:53.663Z,71.93
2022-11-19T23:55:23.876Z,71.96
2022-11-19T23:57:54.123Z,71.80
